CheckWX is a tool to help pilots better visualize weather data.  It is not intended as a substitute for an official pre-flight weather briefing.

02:13:19 UTC

UASS TAF
Semipalatinsk Airport
Semey, Kazakhstan
TAF UASS 230045Z 2302/2309 12005MPS 9999 SCT030 SCT100

Apr-23@
02:00 UTC

Apr-23 @ 02:00 UTC

Apr-23@
09:00 UTC

Apr-23 @ 09:00 UTC

TAF UASS 230045Z 2302/2309 12005MPS 9999 SCT030 SCT100
Wind
  • 120° at 10 KTS
Cloud Levels
  • Scattered at 3,000' AGL
  • Scattered at 10,000' AGL